Time;durP1;ratioP1;P1;durP2;ratioP2;P2;SDS_P1;SDS_P2;PMS_P1;PMS_P2;Temp;Humidity;BMP_temperature;BMP_pressure;BME280_temperature;BME280_humidity;BME280_pressure;Samples;Min_cycle;Max_cycle;Signal;HPM_P1;HPM_P2
2022/09/10 00:02:03;;;;;;;10.70;6.50;;;;;;;22.16;92.34;98138.00;5054576;28;20212;-52
2022/09/10 00:04:29;;;;;;;8.45;6.20;;;;;;;22.11;93.31;98142.16;5053823;28;20669;-52
2022/09/10 00:06:55;;;;;;;8.77;6.45;;;;;;;22.08;94.01;98130.19;5054129;28;20606;-52
2022/09/10 00:09:20;;;;;;;7.65;6.55;;;;;;;22.04;95.00;98133.38;5054151;28;20181;-52
2022/09/10 00:11:46;;;;;;;17.55;6.70;;;;;;;21.96;95.54;98128.22;5053886;28;20177;-52
2022/09/10 00:14:14;;;;;;;9.95;6.55;;;;;;;22.00;96.13;98132.09;5053730;28;20196;-53
2022/09/10 00:16:40;;;;;;;7.47;6.70;;;;;;;22.02;95.07;98124.84;5053680;28;20245;-52
2022/09/10 00:19:06;;;;;;;8.18;6.88;;;;;;;21.96;95.75;98128.22;5053912;28;20168;-53
2022/09/10 00:21:32;;;;;;;10.32;6.80;;;;;;;21.91;94.92;98112.94;5053625;28;20189;-52
2022/09/10 00:23:58;;;;;;;8.70;6.45;;;;;;;21.98;94.93;98126.19;5053570;28;20184;-52
2022/09/10 00:26:26;;;;;;;10.48;7.03;;;;;;;22.02;93.92;98123.00;5053455;28;20201;-52
2022/09/10 00:28:54;;;;;;;11.80;6.75;;;;;;;22.12;93.61;98130.63;5053491;28;20663;-52
2022/09/10 00:31:21;;;;;;;8.68;6.68;;;;;;;22.12;93.48;98114.81;5053470;28;20291;-52
2022/09/10 00:33:48;;;;;;;10.98;6.95;;;;;;;22.11;93.36;98118.44;5053420;28;20705;-52
2022/09/10 00:36:23;;;;;;;7.60;6.90;;;;;;;21.93;94.48;98110.94;5053663;28;20173;-52
2022/09/10 00:38:50;;;;;;;9.43;6.57;;;;;;;22.00;94.05;98117.13;5053339;28;20541;-52
2022/09/10 00:41:17;;;;;;;7.40;6.13;;;;;;;21.84;95.56;98124.38;5053443;28;20565;-52
2022/09/10 00:43:51;;;;;;;10.15;6.53;;;;;;;21.78;95.82;98127.72;5053210;28;20628;-52
2022/09/10 00:46:46;;;;;;;7.80;6.65;;;;;;;21.85;94.23;98129.47;5053416;28;20216;-52
2022/09/10 00:49:32;;;;;;;13.50;6.95;;;;;;;21.80;95.25;98118.66;5051722;28;20242;-52
2022/09/10 00:51:59;;;;;;;10.68;7.07;;;;;;;21.88;94.45;98131.75;5053206;28;20618;-52
2022/09/10 00:54:27;;;;;;;8.10;6.90;;;;;;;21.84;94.78;98121.72;5052950;28;20631;-52
2022/09/10 00:56:55;;;;;;;6.88;6.03;;;;;;;21.80;94.50;98126.56;5053220;28;20219;-52
2022/09/10 00:59:25;;;;;;;11.63;5.95;;;;;;;21.53;97.71;98131.59;5052908;28;20181;-52
2022/09/10 01:01:51;;;;;;;6.95;6.25;;;;;;;21.56;96.28;98128.63;5052825;28;20774;-52
2022/09/10 01:04:17;;;;;;;10.35;6.68;;;;;;;21.63;96.74;98134.78;5052687;28;20177;-51
2022/09/10 01:06:45;;;;;;;10.30;6.82;;;;;;;21.56;96.76;98124.16;5052794;28;20213;-52
2022/09/10 01:09:11;;;;;;;10.60;5.78;;;;;;;21.65;96.44;98135.41;5052707;28;20711;-52
2022/09/10 01:11:55;;;;;;;9.63;6.28;;;;;;;21.47;97.16;98135.78;5052684;28;20196;-52
2022/09/10 01:14:55;;;;;;;7.38;6.65;;;;;;;21.44;97.56;98136.13;5052616;28;20246;-52
2022/09/10 01:17:24;;;;;;;12.80;7.38;;;;;;;21.21;99.30;98140.63;5052136;28;20196;-52
2022/09/10 01:20:27;;;;;;;9.27;6.68;;;;;;;21.19;99.25;98136.53;5052791;28;20185;-52
2022/09/10 01:23:20;;;;;;;11.23;7.82;;;;;;;21.14;99.13;98138.88;5052475;28;20169;-52
2022/09/10 01:26:10;;;;;;;16.48;8.25;;;;;;;21.05;100.00;98134.69;5052431;28;20197;-52
2022/09/10 01:28:47;;;;;;;12.60;8.15;;;;;;;20.92;100.00;98129.22;5052426;28;20165;-52
2022/09/10 01:31:30;;;;;;;9.95;7.38;;;;;;;21.05;100.00;98126.78;5052659;28;20153;-52
2022/09/10 01:34:45;;;;;;;9.48;6.70;;;;;;;21.00;100.00;98122.06;5052260;28;20665;-52
2022/09/10 01:37:20;;;;;;;13.30;7.50;;;;;;;20.94;100.00;98108.78;5050166;28;20193;-52
2022/09/10 01:39:48;;;;;;;10.07;7.32;;;;;;;21.16;99.88;98131.63;5050371;28;20165;-52
2022/09/10 01:42:14;;;;;;;9.70;6.97;;;;;;;21.21;98.78;98130.09;5051439;28;20189;-52
2022/09/10 01:44:46;;;;;;;11.13;7.47;;;;;;;21.12;99.70;98131.19;5052370;28;20169;-52
2022/09/10 01:47:31;;;;;;;8.90;7.28;;;;;;;21.14;99.10;98123.06;5050846;28;20189;-53
2022/09/10 01:50:31;;;;;;;8.95;6.90;;;;;;;21.08;98.85;98115.91;5052289;28;20172;-52
2022/09/10 01:53:21;;;;;;;19.65;7.18;;;;;;;20.76;100.00;98105.63;5052018;28;20568;-53
2022/09/10 01:56:34;;;;;;;11.05;7.50;;;;;;;20.85;100.00;98109.81;5051984;28;20173;-54
2022/09/10 01:59:05;;;;;;;12.65;7.65;;;;;;;20.80;100.00;98102.44;5050230;28;20196;-54
2022/09/10 02:01:53;;;;;;;13.77;7.95;;;;;;;20.79;100.00;98097.34;5052389;28;20154;-53
2022/09/10 02:04:21;;;;;;;13.68;7.10;;;;;;;20.93;100.00;98120.31;5051706;28;20178;-53
2022/09/10 02:06:50;;;;;;;13.23;8.10;;;;;;;20.99;100.00;98122.25;5052059;28;20217;-53
2022/09/10 02:09:17;;;;;;;14.40;7.80;;;;;;;20.86;100.00;98106.22;5052126;28;20613;-53
2022/09/10 02:11:51;;;;;;;13.27;7.95;;;;;;;20.67;100.00;98119.81;5051831;28;20177;-53
2022/09/10 02:14:17;;;;;;;13.85;8.95;;;;;;;20.55;100.00;98116.78;5052033;28;20631;-53
2022/09/10 02:16:52;;;;;;;11.13;9.32;;;;;;;20.29;100.00;98103.13;5051746;28;20189;-53
2022/09/10 02:19:18;;;;;;;12.30;8.70;;;;;;;20.61;100.00;98123.13;5052110;28;20165;-53
2022/09/10 02:21:44;;;;;;;10.90;8.55;;;;;;;20.51;100.00;98109.41;5051794;28;20184;-53
2022/09/10 02:24:11;;;;;;;10.35;8.80;;;;;;;20.57;100.00;98113.97;5052030;28;20188;-52
2022/09/10 02:26:40;;;;;;;12.75;8.95;;;;;;;20.63;100.00;98108.03;5051668;28;20193;-53
2022/09/10 02:29:07;;;;;;;10.45;8.15;;;;;;;20.70;100.00;98111.59;5051966;28;20626;-53
2022/09/10 02:31:33;;;;;;;11.35;8.25;;;;;;;20.67;100.00;98109.28;5051633;28;20314;-53
2022/09/10 02:33:58;;;;;;;13.32;8.27;;;;;;;20.75;100.00;98110.03;5051770;28;20212;-53
2022/09/10 02:36:24;;;;;;;14.45;9.00;;;;;;;20.67;100.00;98118.00;5051632;28;20218;-53
2022/09/10 02:38:51;;;;;;;12.55;8.93;;;;;;;20.47;100.00;98123.91;5051581;28;20169;-53
2022/09/10 02:41:17;;;;;;;10.73;8.48;;;;;;;20.23;100.00;98113.53;5051545;28;20189;-53
2022/09/10 02:43:44;;;;;;;10.13;8.70;;;;;;;20.12;100.00;98119.16;5051575;28;20252;-53
2022/09/10 02:46:09;;;;;;;12.55;9.10;;;;;;;20.36;100.00;98121.66;5051419;28;20201;-53
2022/09/10 02:48:35;;;;;;;10.40;9.23;;;;;;;20.48;100.00;98133.41;5051462;28;20185;-53
2022/09/10 02:51:01;;;;;;;10.77;9.00;;;;;;;20.46;100.00;98128.31;5051440;28;20235;-53
2022/09/10 02:53:27;;;;;;;11.85;8.85;;;;;;;20.11;100.00;98117.53;5051747;28;20204;-53
2022/09/10 02:55:53;;;;;;;9.68;8.75;;;;;;;19.93;100.00;98109.03;5051388;28;20643;-53
2022/09/10 02:58:19;;;;;;;14.30;9.85;;;;;;;19.75;100.00;98111.09;5051665;28;20200;-53
2022/09/10 03:00:45;;;;;;;10.27;9.27;;;;;;;19.54;100.00;98102.94;5051399;28;20180;-53
2022/09/10 03:03:11;;;;;;;15.73;9.73;;;;;;;19.41;100.00;98103.44;5051549;28;20185;-53
2022/09/10 03:05:37;;;;;;;15.07;9.98;;;;;;;19.57;100.00;98105.19;5051203;28;20623;-53
2022/09/10 03:08:04;;;;;;;12.48;8.07;;;;;;;19.81;100.00;98111.19;5051234;28;20201;-53
2022/09/10 03:10:30;;;;;;;12.27;8.45;;;;;;;19.82;100.00;98120.72;5051339;28;20181;-53
2022/09/10 03:12:56;;;;;;;11.10;8.00;;;;;;;19.83;100.00;98117.13;5053040;28;20217;-53
2022/09/10 03:15:21;;;;;;;13.57;8.35;;;;;;;20.06;100.00;98130.31;5055447;28;20193;-53
2022/09/10 03:17:47;;;;;;;10.95;8.02;;;;;;;20.18;100.00;98139.50;5054880;28;20544;-53
2022/09/10 03:20:12;;;;;;;9.95;7.93;;;;;;;20.35;100.00;98130.53;5054801;28;20264;-53
2022/09/10 03:22:38;;;;;;;15.73;7.95;;;;;;;20.34;100.00;98128.91;5055762;28;20177;-53
2022/09/10 03:25:04;;;;;;;16.52;8.50;;;;;;;19.99;100.00;98122.28;5054641;28;20728;-53
2022/09/10 03:27:30;;;;;;;14.63;8.23;;;;;;;20.05;100.00;98128.69;5053653;28;20181;-53
2022/09/10 03:29:55;;;;;;;10.68;8.80;;;;;;;19.86;100.00;98124.66;5054908;28;20186;-53
2022/09/10 03:32:21;;;;;;;14.40;8.25;;;;;;;20.00;100.00;98136.25;5054582;28;20635;-53
2022/09/10 03:34:48;;;;;;;11.23;9.07;;;;;;;20.14;100.00;98135.56;5054791;28;20181;-53
2022/09/10 03:37:14;;;;;;;10.00;8.15;;;;;;;20.18;100.00;98139.50;5054445;28;20188;-53
2022/09/10 03:39:40;;;;;;;12.40;8.32;;;;;;;20.19;100.00;98133.25;5054682;28;20181;-53
2022/09/10 03:42:06;;;;;;;9.77;8.70;;;;;;;20.35;100.00;98146.31;5054423;28;20184;-53
2022/09/10 03:44:32;;;;;;;11.90;8.73;;;;;;;20.24;100.00;98128.28;5054535;28;20190;-53
2022/09/10 03:46:59;;;;;;;14.20;8.85;;;;;;;20.30;100.00;98128.44;5054252;28;20201;-53
2022/09/10 03:49:25;;;;;;;10.70;8.60;;;;;;;20.21;100.00;98123.38;5054290;28;20180;-53
2022/09/10 03:51:50;;;;;;;10.25;8.68;;;;;;;20.15;100.00;98113.53;5054185;28;20188;-53
2022/09/10 03:54:15;;;;;;;11.90;8.35;;;;;;;20.23;100.00;98121.41;5054128;28;20638;-53
2022/09/10 03:56:41;;;;;;;13.55;8.43;;;;;;;20.35;100.00;98128.72;5054100;28;20176;-53
2022/09/10 03:59:06;;;;;;;10.48;8.15;;;;;;;20.49;100.00;98137.66;5054095;28;20283;-53
2022/09/10 04:01:32;;;;;;;12.18;8.13;;;;;;;20.40;100.00;98136.09;5054014;28;20196;-53
2022/09/10 04:03:57;;;;;;;8.68;7.78;;;;;;;20.25;100.00;98145.69;5053993;28;20269;-53
2022/09/10 04:06:23;;;;;;;13.90;8.70;;;;;;;20.03;100.00;98141.16;5053692;28;20224;-53
2022/09/10 04:08:50;;;;;;;10.05;8.05;;;;;;;19.94;100.00;98136.94;5054187;28;20184;-53
2022/09/10 04:11:16;;;;;;;10.02;7.85;;;;;;;19.92;100.00;98136.25;5054119;28;20267;-53
2022/09/10 04:13:41;;;;;;;11.18;8.45;;;;;;;19.91;100.00;98139.88;5054043;28;20177;-53
2022/09/10 04:16:07;;;;;;;13.10;8.65;;;;;;;20.02;100.00;98132.47;5053746;28;20173;-53
2022/09/10 04:18:33;;;;;;;10.35;9.02;;;;;;;19.94;100.00;98131.69;5053988;28;20207;-53
2022/09/10 04:20:58;;;;;;;13.60;8.98;;;;;;;19.90;100.00;98127.75;5053691;28;20252;-52
2022/09/10 04:23:24;;;;;;;10.85;8.65;;;;;;;20.03;100.00;98131.47;5053560;28;20261;-52
2022/09/10 04:25:51;;;;;;;15.18;8.63;;;;;;;20.18;100.00;98129.81;5053528;28;20197;-52
2022/09/10 04:28:16;;;;;;;11.55;8.15;;;;;;;20.32;100.00;98125.59;5053497;28;20177;-52
2022/09/10 04:30:45;;;;;;;10.82;8.60;;;;;;;20.17;100.00;98116.84;5053479;28;20626;-52
2022/09/10 04:33:11;;;;;;;14.23;8.07;;;;;;;20.36;100.00;98122.47;5053414;28;20177;-53
2022/09/10 04:35:38;;;;;;;12.52;8.43;;;;;;;20.36;100.00;98119.03;5053374;28;20172;-53
2022/09/10 04:38:04;;;;;;;11.65;8.27;;;;;;;20.46;100.00;98122.25;5053919;28;20582;-53
2022/09/10 04:40:29;;;;;;;8.98;8.13;;;;;;;20.54;100.00;98122.19;5053239;28;20227;-53
2022/09/10 04:42:55;;;;;;;17.40;8.52;;;;;;;20.68;100.00;98127.53;5053507;28;20171;-53
2022/09/10 04:45:20;;;;;;;15.65;8.70;;;;;;;20.79;100.00;98113.97;5053372;28;20205;-52
2022/09/10 04:47:46;;;;;;;10.27;8.05;;;;;;;20.97;100.00;98121.59;5053129;28;20644;-52
2022/09/10 04:50:14;;;;;;;13.60;7.88;;;;;;;21.11;100.00;98118.19;5053112;28;20697;-52
2022/09/10 04:52:42;;;;;;;10.60;8.07;;;;;;;21.17;100.00;98123.56;5053246;28;20227;-52
2022/09/10 04:55:08;;;;;;;13.13;7.70;;;;;;;21.22;100.00;98137.00;5053682;28;20173;-53
2022/09/10 04:57:34;;;;;;;13.43;7.47;;;;;;;21.27;100.00;98128.56;5053430;28;20191;-53
2022/09/10 05:00:02;;;;;;;10.18;8.10;;;;;;;21.30;100.00;98128.22;5052815;28;20177;-53
2022/09/10 05:02:28;;;;;;;8.75;7.70;;;;;;;21.32;100.00;98128.88;5053102;28;20180;-52
2022/09/10 05:04:53;;;;;;;12.55;8.60;;;;;;;21.34;100.00;98121.59;5052591;28;20633;-53
2022/09/10 05:07:18;;;;;;;12.00;7.60;;;;;;;21.26;100.00;98113.75;5052710;28;20621;-54
2022/09/10 05:09:44;;;;;;;12.85;8.00;;;;;;;21.32;100.00;98126.22;5052709;28;20192;-53
2022/09/10 05:12:09;;;;;;;11.70;8.00;;;;;;;21.38;100.00;98126.31;5052707;28;20256;-53
2022/09/10 05:14:35;;;;;;;7.78;7.07;;;;;;;21.38;100.00;98115.00;5052659;28;20555;-53
2022/09/10 05:17:00;;;;;;;8.48;6.07;;;;;;;21.47;98.79;98120.00;5052848;28;20423;-53
2022/09/10 05:19:25;;;;;;;11.93;5.45;;;;;;;21.46;98.04;98122.78;5052509;28;20661;-53
2022/09/10 05:21:51;;;;;;;7.10;5.47;;;;;;;21.38;97.52;98117.63;5052536;28;20177;-53
2022/09/10 05:24:16;;;;;;;15.48;6.13;;;;;;;21.47;96.18;98119.16;5052552;28;20260;-53
2022/09/10 05:26:43;;;;;;;11.32;6.05;;;;;;;21.48;96.22;98115.53;5052643;28;20256;-53
2022/09/10 05:29:09;;;;;;;12.45;6.00;;;;;;;21.57;96.11;98124.97;5052327;28;20181;-54
2022/09/10 05:31:35;;;;;;;10.15;5.72;;;;;;;21.62;95.77;98115.53;5052609;28;20173;-53
2022/09/10 05:34:02;;;;;;;12.32;6.35;;;;;;;21.78;95.40;98128.56;5052571;28;20181;-52
2022/09/10 05:36:28;;;;;;;10.82;6.43;;;;;;;21.88;94.83;98137.03;5051907;28;20172;-52
2022/09/10 05:38:56;;;;;;;13.75;6.60;;;;;;;21.80;94.24;98121.28;5052496;28;20177;-53
2022/09/10 05:41:22;;;;;;;11.43;6.95;;;;;;;21.98;93.86;98128.84;5052168;28;20173;-53
2022/09/10 05:43:48;;;;;;;14.13;6.50;;;;;;;21.72;93.36;98131.09;5052431;28;20559;-53
2022/09/10 05:46:14;;;;;;;7.97;6.75;;;;;;;21.81;93.97;98124.75;5052086;28;20192;-53
2022/09/10 05:48:39;;;;;;;11.70;7.25;;;;;;;21.92;94.08;98129.56;5052357;28;20179;-52
2022/09/10 05:51:05;;;;;;;10.23;7.10;;;;;;;22.04;93.46;98136.00;5052076;28;20169;-52
2022/09/10 05:53:32;;;;;;;15.35;8.15;;;;;;;21.91;92.14;98091.06;5052345;28;20629;-52
2022/09/10 05:55:57;;;;;;;10.98;9.20;;;;;;;22.31;92.07;98145.88;5051964;28;20208;-53
2022/09/10 05:58:23;;;;;;;12.27;9.32;;;;;;;22.39;91.90;98148.41;5052274;28;20250;-52
2022/09/10 06:00:49;;;;;;;18.15;9.63;;;;;;;22.46;91.21;98147.50;5052283;28;20161;-53
2022/09/10 06:03:15;;;;;;;18.98;10.32;;;;;;;22.58;91.30;98158.38;5051934;28;20541;-53
2022/09/10 06:05:49;;;;;;;20.08;10.23;;;;;;;22.66;91.12;98158.28;5051645;28;20303;-52
2022/09/10 06:08:15;;;;;;;17.42;11.02;;;;;;;22.81;90.56;98157.22;5051799;28;20276;-53
2022/09/10 06:10:40;;;;;;;12.65;10.68;;;;;;;22.88;90.23;98154.63;5052136;28;20183;-53
2022/09/10 06:13:06;;;;;;;16.92;11.18;;;;;;;22.99;89.95;98160.25;5052125;28;20169;-53
2022/09/10 06:15:34;;;;;;;16.13;11.40;;;;;;;22.96;89.11;98157.16;5051806;28;20246;-53
2022/09/10 06:18:00;;;;;;;17.67;11.73;;;;;;;23.05;88.38;98156.03;5051773;28;20176;-52
2022/09/10 06:20:26;;;;;;;18.52;12.50;;;;;;;23.08;88.27;98150.38;5051762;28;20700;-53
2022/09/10 06:22:52;;;;;;;15.40;11.20;;;;;;;23.18;87.70;98156.16;5051763;28;20177;-53
2022/09/10 06:25:17;;;;;;;17.42;11.45;;;;;;;23.21;87.14;98161.91;5051902;28;20262;-53
2022/09/10 06:27:43;;;;;;;14.82;11.27;;;;;;;23.28;87.21;98162.78;5052318;28;20169;-53
2022/09/10 06:30:09;;;;;;;14.90;11.27;;;;;;;23.32;86.78;98153.44;5051886;28;20177;-53
2022/09/10 06:32:34;;;;;;;14.52;11.18;;;;;;;23.42;85.96;98159.22;5051585;28;20184;-53
2022/09/10 06:35:00;;;;;;;11.70;10.40;;;;;;;23.51;85.62;98165.19;5051994;28;20165;-52
2022/09/10 06:37:25;;;;;;;22.80;11.18;;;;;;;23.63;85.31;98156.53;5051644;28;20244;-52
2022/09/10 06:39:51;;;;;;;18.55;10.45;;;;;;;23.73;85.00;98145.63;5051866;28;20187;-53
2022/09/10 06:42:16;;;;;;;16.80;10.75;;;;;;;23.88;83.38;98147.19;5051790;28;20663;-53
2022/09/10 06:44:43;;;;;;;14.88;10.32;;;;;;;23.97;83.50;98132.81;5051749;28;20303;-52
2022/09/10 06:47:08;;;;;;;14.15;10.18;;;;;;;23.99;82.57;98136.06;5052126;28;20181;-53
2022/09/10 06:49:35;;;;;;;17.33;10.75;;;;;;;23.97;81.96;98147.84;5056114;28;20180;-53
2022/09/10 06:52:01;;;;;;;13.10;9.95;;;;;;;24.08;82.18;98144.66;5055599;28;20185;-53
2022/09/10 06:54:26;;;;;;;10.43;9.43;;;;;;;24.18;80.83;98151.19;5056114;28;20645;-53
2022/09/10 06:56:52;;;;;;;11.25;9.98;;;;;;;24.31;79.99;98148.63;5055552;28;20248;-53
2022/09/10 06:59:17;;;;;;;15.23;9.68;;;;;;;24.41;79.27;98136.66;5055525;28;20662;-53
2022/09/10 07:01:43;;;;;;;12.90;9.10;;;;;;;24.56;78.14;98134.66;5055201;28;20635;-53
2022/09/10 07:04:09;;;;;;;13.05;9.32;;;;;;;24.70;76.05;98146.13;5054967;28;20173;-53
2022/09/10 07:06:36;;;;;;;13.20;9.30;;;;;;;24.78;75.51;98151.25;5055262;28;20292;-53
2022/09/10 07:09:03;;;;;;;12.18;8.93;;;;;;;24.80;74.99;98151.84;5053771;28;20204;-53
2022/09/10 07:11:30;;;;;;;13.68;8.23;;;;;;;24.82;74.48;98148.00;5054975;28;20647;-53
2022/09/10 07:13:56;;;;;;;11.45;9.10;;;;;;;24.84;74.34;98153.88;5055030;28;20589;-53
2022/09/10 07:16:24;;;;;;;15.55;8.77;;;;;;;24.83;75.16;98152.25;5054831;28;20169;-53
2022/09/10 07:18:53;;;;;;;19.33;9.23;;;;;;;24.84;74.39;98153.88;5054865;28;20165;-52
2022/09/10 07:21:20;;;;;;;12.48;9.10;;;;;;;24.88;75.13;98146.34;5055103;28;20590;-52
2022/09/10 07:23:50;;;;;;;14.38;8.90;;;;;;;24.93;74.90;98152.69;5054742;28;20168;-54
2022/09/10 07:26:21;;;;;;;11.68;8.52;;;;;;;25.05;73.95;98159.03;5054598;28;20682;-51
2022/09/10 07:28:46;;;;;;;13.55;8.68;;;;;;;25.11;72.99;98165.34;5054725;28;20158;-51
2022/09/10 07:31:18;;;;;;;14.95;8.38;;;;;;;25.16;72.35;98168.19;5054636;28;20175;-52
2022/09/10 07:33:45;;;;;;;14.05;8.27;;;;;;;25.23;71.14;98179.59;5054824;28;20165;-52
2022/09/10 07:36:11;;;;;;;15.13;11.00;;;;;;;25.15;72.01;98156.81;5054497;28;20235;-52
2022/09/10 07:38:37;;;;;;;9.85;7.97;;;;;;;25.38;71.63;98188.22;5054807;28;20173;-52
2022/09/10 07:41:04;;;;;;;11.80;8.35;;;;;;;25.49;70.37;98201.66;5054399;28;20196;-52
2022/09/10 07:43:30;;;;;;;14.35;8.60;;;;;;;25.38;69.51;98157.22;5054354;28;20199;-52
2022/09/10 07:45:55;;;;;;;13.27;9.70;;;;;;;25.54;69.66;98191.25;5054238;28;20197;-52
2022/09/10 07:48:21;;;;;;;12.38;9.10;;;;;;;25.52;70.15;98180.06;5054312;28;20239;-52
2022/09/10 07:50:47;;;;;;;13.13;9.27;;;;;;;25.52;70.88;98173.94;5054294;28;20177;-52
2022/09/10 07:53:13;;;;;;;15.95;10.30;;;;;;;25.43;69.86;98164.59;5053018;28;20534;-52
2022/09/10 07:55:38;;;;;;;20.13;13.25;;;;;;;25.43;70.61;98170.69;5054129;28;20176;-53
2022/09/10 07:58:04;;;;;;;11.70;10.30;;;;;;;25.32;71.01;98184.53;5053739;28;20177;-52
2022/09/10 08:00:30;;;;;;;17.38;9.70;;;;;;;25.39;70.42;98173.94;5054153;28;20176;-52
2022/09/10 08:02:55;;;;;;;11.07;8.70;;;;;;;25.52;69.48;98169.47;5054030;28;20276;-53
2022/09/10 08:05:22;;;;;;;12.95;9.00;;;;;;;25.62;69.09;98159.28;5053809;28;20267;-53
2022/09/10 08:07:50;;;;;;;15.48;13.45;;;;;;;25.71;69.63;98160.66;5054142;28;20197;-53
2022/09/10 08:10:16;;;;;;;16.02;8.95;;;;;;;25.69;69.44;98152.13;5054505;28;20185;-55
2022/09/10 08:12:42;;;;;;;11.23;8.48;;;;;;;25.75;68.13;98153.94;5054125;28;20265;-55
2022/09/10 08:15:09;;;;;;;16.33;8.65;;;;;;;25.77;67.64;98157.19;5053777;28;20200;-54
2022/09/10 08:17:38;;;;;;;10.35;8.43;;;;;;;25.74;68.43;98157.63;5053810;28;20181;-55
2022/09/10 08:20:06;;;;;;;13.68;8.57;;;;;;;25.66;67.67;98164.97;5054007;28;20184;-53
2022/09/10 08:22:33;;;;;;;16.35;9.15;;;;;;;25.62;68.77;98164.56;5053672;28;20566;-54
2022/09/10 08:24:59;;;;;;;14.65;8.90;;;;;;;25.58;69.63;98160.69;5053814;28;20180;-53
2022/09/10 08:27:24;;;;;;;12.40;9.10;;;;;;;25.46;69.25;98154.38;5053512;28;20646;-54
2022/09/10 08:29:50;;;;;;;14.40;9.77;;;;;;;25.41;70.21;98159.47;5053559;28;20180;-54
2022/09/10 08:32:15;;;;;;;15.50;9.63;;;;;;;25.31;70.73;98158.25;5053523;28;20169;-53
2022/09/10 08:34:41;;;;;;;16.13;10.57;;;;;;;25.09;71.74;98152.28;5053483;28;20565;-53
2022/09/10 08:37:07;;;;;;;13.20;10.68;;;;;;;25.13;71.27;98156.16;5053669;28;20192;-53
2022/09/10 08:39:32;;;;;;;14.13;10.77;;;;;;;25.08;72.58;98152.50;5053582;28;20673;-53
2022/09/10 08:42:10;;;;;;;15.35;9.65;;;;;;;25.33;71.80;98153.56;5053558;28;20177;-54
2022/09/10 08:44:53;;;;;;;12.63;9.90;;;;;;;25.56;71.56;98157.44;5053486;28;20168;-53
2022/09/10 08:47:46;;;;;;;11.60;9.27;;;;;;;25.70;69.68;98145.78;5053792;28;20244;-54
2022/09/10 08:50:43;;;;;;;10.27;9.25;;;;;;;25.94;68.04;98153.13;5053445;28;20222;-54
2022/09/10 08:53:18;;;;;;;13.40;9.55;;;;;;;26.11;67.29;98156.94;5053285;28;20161;-54
2022/09/10 08:55:44;;;;;;;13.02;9.15;;;;;;;26.24;66.64;98156.09;5053312;28;20625;-54
2022/09/10 08:58:10;;;;;;;9.82;8.82;;;;;;;26.38;65.28;98152.34;5052925;28;20208;-54
2022/09/10 09:00:43;;;;;;;10.80;8.50;;;;;;;26.42;65.92;98151.72;5053176;28;20213;-54
2022/09/10 09:03:46;;;;;;;18.65;10.00;;;;;;;26.58;65.70;98137.19;5053136;28;20180;-54
2022/09/10 09:06:23;;;;;;;17.75;8.93;;;;;;;26.62;65.41;98138.38;5051473;28;20614;-53
2022/09/10 09:08:50;;;;;;;19.92;9.68;;;;;;;26.70;65.08;98133.66;5051545;28;20270;-53
2022/09/10 09:11:44;;;;;;;15.93;9.45;;;;;;;26.58;65.62;98131.91;5052039;28;20173;-53
2022/09/10 09:14:32;;;;;;;11.95;8.50;;;;;;;26.59;65.34;98129.00;5053024;28;20268;-53
2022/09/10 09:17:22;;;;;;;18.50;9.57;;;;;;;26.57;64.91;98136.38;5052909;28;20240;-53
2022/09/10 09:20:02;;;;;;;15.13;9.15;;;;;;;26.51;65.21;98134.53;5052539;28;20192;-53
2022/09/10 09:22:27;;;;;;;13.10;9.60;;;;;;;26.34;65.90;98117.47;5052517;28;20708;-53
2022/09/10 09:24:59;;;;;;;12.13;9.10;;;;;;;26.49;66.75;98115.38;5052581;28;20173;-53
2022/09/10 09:27:35;;;;;;;14.25;8.95;;;;;;;26.58;66.50;98102.69;5052712;28;20173;-53
2022/09/10 09:30:13;;;;;;;11.45;9.50;;;;;;;26.71;65.25;98098.09;5052460;28;20169;-53
2022/09/10 09:32:44;;;;;;;18.10;10.30;;;;;;;26.84;65.04;98098.03;5052698;28;20551;-53
2022/09/10 09:35:31;;;;;;;19.88;9.00;;;;;;;26.84;64.67;98089.25;5052639;28;20661;-53
2022/09/10 09:38:05;;;;;;;10.48;9.10;;;;;;;26.72;64.59;98089.13;5052251;28;20596;-54
2022/09/10 09:40:48;;;;;;;17.73;9.27;;;;;;;26.73;65.74;98074.81;5052247;28;20204;-54
2022/09/10 09:43:30;;;;;;;10.90;9.80;;;;;;;26.71;66.27;98076.84;5052509;28;20160;-53
2022/09/10 09:45:56;;;;;;;14.90;9.07;;;;;;;26.68;66.07;98061.38;5052460;28;20197;-54
2022/09/10 09:48:23;;;;;;;12.00;8.75;;;;;;;26.59;65.43;98062.66;5052172;28;20235;-54
2022/09/10 09:50:54;;;;;;;16.08;9.93;;;;;;;26.67;65.96;98064.25;5052112;28;20216;-54
2022/09/10 09:53:25;;;;;;;12.50;9.85;;;;;;;26.58;66.51;98047.75;5052407;28;20218;-54
2022/09/10 09:56:02;;;;;;;10.65;9.05;;;;;;;26.73;66.45;98055.41;5052135;28;20162;-54
2022/09/10 09:58:33;;;;;;;13.13;9.00;;;;;;;26.81;65.17;98053.31;5052028;28;20173;-54
2022/09/10 10:01:04;;;;;;;12.93;9.52;;;;;;;26.84;65.92;98044.09;5052206;28;20166;-54
2022/09/10 10:04:01;;;;;;;16.30;10.15;;;;;;;26.99;65.66;98053.38;5052235;28;20173;-54
2022/09/10 10:06:45;;;;;;;14.88;9.70;;;;;;;27.14;65.39;98037.94;5052059;28;20281;-53
2022/09/10 10:09:24;;;;;;;12.38;10.02;;;;;;;27.34;64.62;98038.56;5052154;28;20162;-54
2022/09/10 10:11:58;;;;;;;16.90;9.90;;;;;;;27.55;64.11;98032.84;5051835;28;20306;-54
2022/09/10 10:14:29;;;;;;;14.88;9.77;;;;;;;27.80;63.36;98028.28;5052300;28;20248;-54
2022/09/10 10:16:54;;;;;;;14.20;10.43;;;;;;;27.96;62.47;98033.00;5052344;28;20168;-54
2022/09/10 10:19:31;;;;;;;16.00;10.00;;;;;;;28.04;62.09;98027.34;5052090;28;20177;-53
2022/09/10 10:22:20;;;;;;;10.90;9.65;;;;;;;28.01;62.27;98022.50;5053795;28;20495;-53
2022/09/10 10:24:48;;;;;;;12.10;9.27;;;;;;;28.19;62.27;98025.13;5056203;28;20170;-53
2022/09/10 10:27:18;;;;;;;11.00;9.80;;;;;;;28.31;61.69;98023.31;5056111;28;20274;-53
2022/09/10 10:29:59;;;;;;;17.23;9.80;;;;;;;28.32;61.32;98011.63;5056729;28;20540;-53
2022/09/10 10:32:55;;;;;;;12.60;10.00;;;;;;;28.31;61.38;97999.38;5056081;28;20573;-53
2022/09/10 10:35:46;;;;;;;12.85;8.93;;;;;;;28.44;61.00;98009.84;5055285;28;20188;-53
2022/09/10 10:38:27;;;;;;;15.65;9.93;;;;;;;28.46;61.01;98010.41;5055031;28;20193;-53
2022/09/10 10:41:06;;;;;;;16.48;9.45;;;;;;;28.44;61.18;98007.19;5055820;28;20153;-53
2022/09/10 10:44:01;;;;;;;13.60;9.23;;;;;;;28.39;60.91;98001.72;5055875;28;20165;-53
2022/09/10 10:46:30;;;;;;;12.68;9.13;;;;;;;28.31;60.62;98002.03;5055092;28;20228;-53
2022/09/10 10:49:11;;;;;;;13.13;9.07;;;;;;;28.28;60.95;98005.13;5055452;28;20179;-53
2022/09/10 10:51:44;;;;;;;17.05;9.77;;;;;;;28.25;60.34;98005.59;5055682;28;20215;-53
2022/09/10 10:54:16;;;;;;;11.77;9.68;;;;;;;28.17;61.42;97999.78;5055412;28;20189;-53
2022/09/10 10:57:08;;;;;;;11.50;9.23;;;;;;;28.27;62.12;97990.19;5055611;28;20541;-54
2022/09/10 10:59:50;;;;;;;12.02;9.82;;;;;;;28.32;61.75;97981.53;5055566;28;20161;-53
2022/09/10 11:02:27;;;;;;;11.27;10.07;;;;;;;28.43;61.49;97988.78;5055380;28;20173;-54
2022/09/10 11:04:54;;;;;;;14.18;9.55;;;;;;;28.38;60.43;97981.47;5055162;28;20207;-54
2022/09/10 11:07:24;;;;;;;12.85;10.13;;;;;;;28.36;61.00;97978.22;5055339;28;20595;-54
2022/09/10 11:10:01;;;;;;;11.20;9.70;;;;;;;28.31;61.01;97970.09;5055302;28;20527;-52
2022/09/10 11:12:53;;;;;;;14.77;9.52;;;;;;;28.23;60.58;97967.72;5055088;28;20215;-54
2022/09/10 11:16:05;;;;;;;15.20;9.50;;;;;;;28.14;61.65;97968.28;5055284;28;20252;-52
2022/09/10 11:19:12;;;;;;;15.02;10.45;;;;;;;28.03;62.79;97961.88;5054315;28;20258;-52
2022/09/10 11:21:52;;;;;;;16.73;9.80;;;;;;;27.99;63.34;97962.56;5054125;28;20196;-52
2022/09/10 11:24:59;;;;;;;11.30;10.20;;;;;;;27.96;63.13;97960.34;5054972;28;20161;-52
2022/09/10 11:27:37;;;;;;;9.85;8.85;;;;;;;28.04;61.80;97965.38;5052604;28;20188;-52
2022/09/10 11:30:11;;;;;;;14.30;8.38;;;;;;;28.06;61.56;97950.00;5054634;28;20220;-52
2022/09/10 11:32:51;;;;;;;15.00;9.60;;;;;;;28.15;60.99;97960.06;5054381;28;20209;-52
2022/09/10 11:35:20;;;;;;;17.48;10.30;;;;;;;28.15;61.13;97954.75;5054752;28;20153;-52
2022/09/10 11:38:17;;;;;;;9.48;8.68;;;;;;;28.24;60.41;97941.94;5054680;28;20227;-52
2022/09/10 11:40:55;;;;;;;17.02;9.25;;;;;;;28.21;61.72;97942.41;5054545;28;20153;-53